createdAt,value
2019-06-26T13:29:24.883Z,100864.95
2019-06-26T13:32:41.698Z,100851.38
2019-06-26T13:35:58.389Z,100863.62
2019-06-26T13:39:15.137Z,100858.27
2019-06-26T13:42:31.757Z,100852.70
2019-06-26T13:45:48.615Z,100853.22
2019-06-26T13:49:06.841Z,100850.30
2019-06-26T13:52:24.506Z,100834.35
2019-06-26T13:55:41.340Z,100839.68
2019-06-26T13:58:58.090Z,100843.67
2019-06-26T14:02:15.511Z,100853.50
2019-06-26T14:05:32.075Z,100839.65
2019-06-26T14:08:48.861Z,100849.78
2019-06-26T14:12:05.489Z,100836.45
2019-06-26T14:15:22.532Z,100837.53
2019-06-26T14:18:39.157Z,100838.34
2019-06-26T14:21:57.414Z,100835.88
2019-06-26T14:25:14.249Z,100830.55
2019-06-26T14:28:33.918Z,100826.52
2019-06-26T14:31:51.221Z,100829.48
2019-06-26T14:35:07.875Z,100823.59
2019-06-26T14:38:24.792Z,100823.36
2019-06-26T14:41:42.203Z,100826.83
2019-06-26T14:44:59.032Z,100824.23
2019-06-26T14:48:15.947Z,100832.12
2019-06-26T14:51:43.817Z,100817.78
2019-06-26T14:54:51.037Z,100833.80
2019-06-26T14:58:07.670Z,100805.27
2019-06-26T15:01:24.367Z,100816.45
2019-06-26T15:04:41.034Z,100816.05
2019-06-26T15:07:57.793Z,100817.48
2019-06-26T15:11:15.601Z,100814.13
2019-06-26T15:14:32.522Z,100809.86
2019-06-26T15:17:49.211Z,100808.26
2019-06-26T15:21:06.788Z,100805.91
2019-06-26T15:24:27.685Z,100795.23
2019-06-26T15:27:45.165Z,100803.95
2019-06-26T15:31:02.250Z,100792.86
2019-06-26T15:34:18.904Z,100787.45
2019-06-26T15:37:37.694Z,100791.23
2019-06-26T15:40:56.094Z,100779.66
2019-06-26T15:44:14.736Z,100781.02
2019-06-26T15:47:32.444Z,100775.44
2019-06-26T15:50:49.066Z,100769.59
2019-06-26T15:54:05.865Z,100768.72
2019-06-26T15:57:23.283Z,100764.78
2019-06-26T16:00:39.900Z,100765.53
2019-06-26T16:04:01.492Z,100754.67
2019-06-26T16:07:18.186Z,100758.67
2019-06-26T16:10:35.224Z,100763.00
2019-06-26T16:13:52.508Z,100755.30
2019-06-26T16:17:13.887Z,100752.12
2019-06-26T16:20:30.724Z,100752.55
2019-06-26T16:23:47.345Z,100750.69
2019-06-26T16:27:05.667Z,100738.72
2019-06-26T16:30:23.045Z,100735.84
2019-06-26T16:33:39.836Z,100739.86
2019-06-26T16:36:56.557Z,100736.59
2019-06-26T16:40:16.182Z,100730.12
2019-06-26T16:43:27.598Z,100728.94
2019-06-26T16:46:44.223Z,100727.62
2019-06-26T16:50:03.552Z,100728.23
2019-06-26T16:53:20.283Z,100719.97
2019-06-26T16:56:37.161Z,100716.08
2019-06-26T17:00:08.397Z,100723.49
2019-06-26T17:03:13.224Z,100729.79
2019-06-26T17:06:29.870Z,100716.42
2019-06-26T17:09:46.707Z,100721.45
2019-06-26T17:13:06.413Z,100719.00
2019-06-26T17:16:16.929Z,100712.66
2019-06-26T17:19:37.194Z,100711.86
2019-06-26T17:23:05.153Z,100714.09
2019-06-26T17:26:13.514Z,100707.89
2019-06-26T17:29:30.641Z,100693.71
2019-06-26T17:32:47.450Z,100695.58
2019-06-26T17:36:05.393Z,100693.36
2019-06-26T17:39:22.369Z,100704.25
2019-06-26T17:42:43.133Z,100699.24
2019-06-26T17:46:01.269Z,100693.80
2019-06-26T17:49:21.121Z,100694.26
2019-06-26T17:52:34.501Z,100693.06
2019-06-26T17:55:49.704Z,100696.36
2019-06-26T17:59:10.004Z,100692.94
2019-06-26T18:02:27.951Z,100695.43
2019-06-26T18:05:45.147Z,100691.95
2019-06-26T18:09:02.087Z,100696.59
2019-06-26T18:12:19.267Z,100699.77
2019-06-26T18:15:37.355Z,100698.88
2019-06-26T18:18:54.167Z,100704.19
2019-06-26T18:22:10.761Z,100704.59
2019-06-26T18:25:28.293Z,100702.30
2019-06-26T18:28:45.020Z,100703.47
2019-06-26T18:32:01.736Z,100706.98
2019-06-26T18:35:20.154Z,100700.33
2019-06-26T18:38:36.903Z,100697.33
2019-06-26T18:41:54.263Z,100696.61
2019-06-26T18:45:11.611Z,100696.34
2019-06-26T18:48:28.288Z,100697.30
2019-06-26T18:51:45.179Z,100695.77
2019-06-26T18:55:03.457Z,100697.13
2019-06-26T18:58:26.049Z,100705.89
2019-06-26T19:01:42.826Z,100709.80
2019-06-26T19:04:59.480Z,100704.67
2019-06-26T19:08:16.224Z,100716.31
2019-06-26T19:11:33.747Z,100721.66
2019-06-26T19:14:50.762Z,100726.05
2019-06-26T19:18:09.993Z,100731.08
2019-06-26T19:21:26.805Z,100731.09
2019-06-26T19:24:43.839Z,100732.88
2019-06-26T19:28:00.555Z,100748.34
2019-06-26T19:31:17.410Z,100758.16
